Time;durP1;ratioP1;P1;durP2;ratioP2;P2;SDS_P1;SDS_P2;PMS_P1;PMS_P2;Temp;Humidity;BMP_temperature;BMP_pressure;BME280_temperature;BME280_humidity;BME280_pressure;Samples;Min_cycle;Max_cycle;Signal;HPM_P1;HPM_P2
2023/06/04 03:41:44;;;;;;;13.23;12.33;;;13.80;99.90;;;;;;5018058;23;20487;-72
2023/06/04 03:44:13;;;;;;;13.73;12.87;;;13.90;99.90;;;;;;4971521;28;20814;-71
2023/06/04 03:46:39;;;;;;;13.00;12.10;;;13.80;99.90;;;;;;4971564;28;20867;-71
2023/06/04 03:49:06;;;;;;;14.10;13.07;;;13.80;99.90;;;;;;4971406;28;20828;-71
2023/06/04 03:51:34;;;;;;;14.27;13.47;;;13.80;99.90;;;;;;4971400;28;20451;-71
2023/06/04 03:54:01;;;;;;;13.30;12.60;;;13.90;99.90;;;;;;4971285;28;20467;-72
2023/06/04 03:56:28;;;;;;;15.00;14.07;;;13.80;99.90;;;;;;4971439;28;20447;-72
2023/06/04 03:58:56;;;;;;;12.77;12.07;;;13.90;99.90;;;;;;4971251;28;20451;-72
2023/06/04 04:01:24;;;;;;;13.70;12.80;;;13.90;99.90;;;;;;4971218;28;20491;-71
2023/06/04 04:03:50;;;;;;;13.30;12.50;;;13.90;99.90;;;;;;4971311;28;20640;-72
2023/06/04 04:06:18;;;;;;;13.00;12.10;;;14.00;99.90;;;;;;4971200;28;20455;-72
2023/06/04 04:08:45;;;;;;;12.93;12.23;;;14.10;99.90;;;;;;4971420;28;20451;-71
2023/06/04 04:11:12;;;;;;;12.47;11.63;;;14.20;99.90;;;;;;4971166;28;20601;-71
2023/06/04 04:13:38;;;;;;;13.27;12.47;;;14.40;99.90;;;;;;4971073;28;20467;-72
2023/06/04 04:16:07;;;;;;;12.13;11.43;;;14.50;99.90;;;;;;4971011;28;20448;-72
2023/06/04 04:18:34;;;;;;;12.67;11.77;;;14.60;99.90;;;;;;4970929;28;20463;-72
2023/06/04 04:21:01;;;;;;;12.47;11.83;;;14.70;99.90;;;;;;4971180;28;20455;-72
2023/06/04 04:23:28;;;;;;;12.73;12.00;;;14.80;99.90;;;;;;4971236;28;20459;-72
2023/06/04 04:25:56;;;;;;;12.40;11.60;;;14.90;99.90;;;;;;4970989;28;20923;-72
2023/06/04 04:28:23;;;;;;;14.27;13.27;;;15.00;99.90;;;;;;4971143;28;20907;-72
2023/06/04 04:30:49;;;;;;;13.50;12.23;;;15.30;99.90;;;;;;4970862;28;20494;-71
2023/06/04 04:33:17;;;;;;;13.33;12.53;;;15.80;99.90;;;;;;4970933;28;20451;-72
2023/06/04 04:35:45;;;;;;;13.80;12.67;;;16.40;99.90;;;;;;4971091;28;20814;-72
2023/06/04 04:38:12;;;;;;;12.20;11.60;;;16.90;99.90;;;;;;4970870;28;20483;-71
2023/06/04 04:40:39;;;;;;;13.23;12.43;;;17.20;99.10;;;;;;4974495;28;20521;-71
2023/06/04 04:43:06;;;;;;;12.50;11.70;;;17.60;97.90;;;;;;4974917;28;20456;-71
2023/06/04 04:45:32;;;;;;;13.50;12.50;;;18.00;96.70;;;;;;4974600;28;20452;-71
2023/06/04 04:47:59;;;;;;;12.97;12.17;;;18.20;96.40;;;;;;4975020;28;20458;-74
2023/06/04 04:50:27;;;;;;;13.20;12.50;;;18.50;95.50;;;;;;4974525;28;20488;-72
2023/06/04 04:52:54;;;;;;;11.53;10.80;;;18.80;94.60;;;;;;4974406;28;20455;-72
2023/06/04 04:55:20;;;;;;;11.70;11.00;;;18.90;93.70;;;;;;4974414;28;20451;-71
2023/06/04 04:57:47;;;;;;;11.50;10.90;;;18.80;93.80;;;;;;4974786;28;20462;-70
2023/06/04 05:00:15;;;;;;;12.80;11.80;;;18.90;93.30;;;;;;4976995;28;20450;-74
2023/06/04 05:02:42;;;;;;;12.10;11.43;;;19.10;93.10;;;;;;4981687;28;20451;-74
2023/06/04 05:05:10;;;;;;;12.23;11.53;;;19.50;91.90;;;;;;4983384;28;20443;-74
2023/06/04 05:08:27;;;;;;;12.27;11.50;;;19.80;91.30;;;;;;4984541;28;20490;-73
2023/06/04 05:10:55;;;;;;;11.93;11.33;;;20.10;90.80;;;;;;4986693;28;20482;-74
2023/06/04 05:13:22;;;;;;;11.90;11.27;;;20.50;90.20;;;;;;4992928;28;20469;-73
2023/06/04 05:15:52;;;;;;;12.00;11.40;;;20.70;89.10;;;;;;4993275;28;20549;-73
2023/06/04 05:18:20;;;;;;;11.60;11.00;;;20.90;86.90;;;;;;4993471;28;20513;-73
2023/06/04 05:20:47;;;;;;;12.87;12.03;;;21.20;84.90;;;;;;4990644;28;20443;-73
2023/06/04 05:23:14;;;;;;;12.20;11.40;;;21.40;82.90;;;;;;4993395;28;20796;-74
2023/06/04 05:25:41;;;;;;;12.10;11.50;;;21.90;82.00;;;;;;4992861;28;20462;-73
2023/06/04 05:28:09;;;;;;;11.30;10.70;;;22.30;79.50;;;;;;4993028;28;20464;-74
2023/06/04 05:30:36;;;;;;;11.87;11.27;;;22.70;76.30;;;;;;4992849;28;21038;-75
2023/06/04 05:33:02;;;;;;;10.93;10.33;;;23.00;75.10;;;;;;4974372;28;20460;-74
2023/06/04 05:35:29;;;;;;;11.87;11.27;;;23.10;72.70;;;;;;4973704;28;20463;-74
2023/06/04 05:37:56;;;;;;;11.10;10.60;;;23.30;71.90;;;;;;4972063;28;20957;-74
2023/06/04 05:40:23;;;;;;;11.17;10.67;;;23.40;70.60;;;;;;4973192;28;20479;-74
2023/06/04 05:42:50;;;;;;;12.07;11.47;;;23.50;69.60;;;;;;4973406;28;20452;-75
2023/06/04 05:45:18;;;;;;;11.40;10.80;;;23.50;67.90;;;;;;4973648;28;20466;-74
2023/06/04 05:47:45;;;;;;;10.70;10.20;;;23.40;66.80;;;;;;4973723;28;20463;-74
2023/06/04 05:50:12;;;;;;;11.33;10.70;;;23.10;66.50;;;;;;4973182;28;20488;-74
2023/06/04 05:52:39;;;;;;;10.37;9.87;;;22.80;68.20;;;;;;4972002;28;20492;-74
2023/06/04 05:55:07;;;;;;;11.20;10.40;;;22.80;67.70;;;;;;4973169;28;20451;-74
2023/06/04 05:57:34;;;;;;;11.10;10.33;;;22.80;66.40;;;;;;4973153;28;20475;-73
2023/06/04 06:00:01;;;;;;;10.53;10.00;;;22.60;67.10;;;;;;4973363;28;20463;-74
2023/06/04 06:02:32;;;;;;;10.70;10.00;;;22.20;67.80;;;;;;4973227;28;20459;-74
2023/06/04 06:04:58;;;;;;;10.77;10.03;;;22.00;69.80;;;;;;4973479;28;20546;-74
2023/06/04 06:07:25;;;;;;;11.33;10.67;;;22.30;68.90;;;;;;4973078;28;20471;-74
2023/06/04 06:09:52;;;;;;;10.90;10.40;;;22.90;67.00;;;;;;4972813;28;20699;-74
2023/06/04 06:12:18;;;;;;;11.23;10.50;;;23.60;66.00;;;;;;4973025;28;20483;-75
2023/06/04 06:14:45;;;;;;;10.87;10.37;;;24.40;64.80;;;;;;4973250;28;20471;-75
2023/06/04 06:17:12;;;;;;;11.20;10.70;;;24.30;62.50;;;;;;4973003;28;20451;-75
2023/06/04 06:19:40;;;;;;;11.30;10.40;;;24.80;61.70;;;;;;4972985;28;20853;-75
2023/06/04 06:22:07;;;;;;;10.93;10.43;;;25.30;60.10;;;;;;4971733;28;20645;-74
2023/06/04 06:24:34;;;;;;;11.00;10.50;;;25.40;59.20;;;;;;4971417;28;20467;-75
2023/06/04 06:27:00;;;;;;;11.80;11.20;;;25.40;58.90;;;;;;4970279;28;20458;-75
2023/06/04 06:29:27;;;;;;;10.40;10.00;;;25.60;57.80;;;;;;4971678;28;20493;-74
2023/06/04 06:31:54;;;;;;;11.13;10.63;;;25.90;57.80;;;;;;4971112;28;20487;-75
2023/06/04 06:34:20;;;;;;;11.17;10.67;;;26.40;56.50;;;;;;4971298;28;20592;-74
2023/06/04 06:36:49;;;;;;;10.50;9.90;;;26.80;56.70;;;;;;4971687;28;20459;-75
2023/06/04 06:39:16;;;;;;;10.90;10.40;;;27.50;54.30;;;;;;4971503;28;20475;-75
2023/06/04 06:41:43;;;;;;;12.17;11.47;;;27.70;54.40;;;;;;4971938;28;20487;-75
2023/06/04 06:44:09;;;;;;;10.10;9.70;;;27.60;53.60;;;;;;4971965;28;20455;-75
2023/06/04 06:46:36;;;;;;;10.90;10.40;;;27.80;53.50;;;;;;4971725;28;20467;-74
2023/06/04 06:49:03;;;;;;;10.93;10.43;;;27.60;53.30;;;;;;4971810;28;20451;-75
2023/06/04 06:51:29;;;;;;;10.80;10.40;;;27.80;52.80;;;;;;4972304;28;21004;-75
2023/06/04 06:53:57;;;;;;;11.37;10.87;;;27.60;53.40;;;;;;4971948;28;20880;-74
2023/06/04 06:56:24;;;;;;;11.53;11.03;;;28.30;52.30;;;;;;4971848;28;20514;-75
2023/06/04 06:58:52;;;;;;;11.10;10.60;;;28.90;51.30;;;;;;4971791;28;20460;-75
2023/06/04 07:01:18;;;;;;;11.70;11.10;;;29.10;50.90;;;;;;4971191;28;20480;-75
2023/06/04 07:03:45;;;;;;;11.70;11.17;;;29.50;50.10;;;;;;4972015;28;20814;-75
2023/06/04 07:06:12;;;;;;;11.67;11.17;;;29.20;50.20;;;;;;4971868;28;20454;-75
2023/06/04 07:08:40;;;;;;;12.53;12.00;;;30.10;48.60;;;;;;4971566;28;20455;-75
2023/06/04 07:11:11;;;;;;;11.90;11.30;;;30.20;48.20;;;;;;4971805;28;20483;-74
2023/06/04 07:13:38;;;;;;;11.70;11.00;;;29.80;48.10;;;;;;4971544;28;20526;-75
2023/06/04 07:16:05;;;;;;;12.10;11.47;;;28.90;49.60;;;;;;4971024;28;20965;-75
2023/06/04 07:18:32;;;;;;;11.40;10.90;;;28.50;50.30;;;;;;4970086;28;20514;-75
2023/06/04 07:20:59;;;;;;;11.33;10.73;;;29.00;49.30;;;;;;4970103;28;20547;-75
2023/06/04 07:23:25;;;;;;;11.00;10.43;;;29.20;49.30;;;;;;4971441;28;20466;-74
2023/06/04 07:25:52;;;;;;;11.50;11.00;;;29.10;48.90;;;;;;4971390;28;20455;-74
2023/06/04 07:28:20;;;;;;;11.50;10.97;;;29.20;49.00;;;;;;4971374;28;20455;-75
2023/06/04 07:30:47;;;;;;;11.10;10.70;;;29.60;48.70;;;;;;4971511;28;20873;-74
2023/06/04 07:33:14;;;;;;;11.57;11.07;;;29.80;48.40;;;;;;4971645;28;20466;-75
2023/06/04 07:35:40;;;;;;;12.13;11.63;;;29.70;48.50;;;;;;4971310;28;20518;-75
2023/06/04 07:38:07;;;;;;;11.90;11.30;;;29.80;47.90;;;;;;4971182;28;20510;-75
2023/06/04 07:40:34;;;;;;;12.37;11.87;;;29.80;47.90;;;;;;4971065;28;20901;-75
2023/06/04 07:43:01;;;;;;;12.70;12.10;;;30.30;47.00;;;;;;4971389;28;20522;-75
2023/06/04 07:45:30;;;;;;;12.27;11.77;;;30.70;46.80;;;;;;4971372;28;20970;-75
2023/06/04 07:47:57;;;;;;;12.50;11.80;;;30.10;47.40;;;;;;4971191;28;20933;-75
2023/06/04 07:50:24;;;;;;;11.70;11.30;;;30.40;46.90;;;;;;4970968;28;20456;-75
2023/06/04 07:52:51;;;;;;;11.80;11.30;;;30.10;47.60;;;;;;4970963;28;20533;-75
2023/06/04 07:55:17;;;;;;;12.03;11.43;;;29.70;48.90;;;;;;4970943;28;20460;-74
2023/06/04 07:57:45;;;;;;;12.50;12.00;;;29.20;48.80;;;;;;4971286;28;20826;-73
2023/06/04 08:00:14;;;;;;;12.20;11.70;;;29.30;48.90;;;;;;4971111;28;20988;-73
2023/06/04 08:02:43;;;;;;;12.23;11.67;;;29.50;48.70;;;;;;4971057;28;21105;-72
2023/06/04 08:05:09;;;;;;;12.40;11.80;;;29.00;49.50;;;;;;4970938;28;20459;-75
2023/06/04 08:07:36;;;;;;;12.10;11.50;;;29.10;49.30;;;;;;4971031;28;20448;-75
2023/06/04 08:10:03;;;;;;;13.20;12.60;;;29.40;49.00;;;;;;4970853;28;20478;-75
2023/06/04 08:12:30;;;;;;;12.83;12.17;;;29.30;48.30;;;;;;4971090;28;20494;-75
2023/06/04 08:14:57;;;;;;;12.57;12.07;;;28.60;49.10;;;;;;4971005;28;20460;-75
2023/06/04 08:17:24;;;;;;;12.97;12.47;;;28.30;50.10;;;;;;4970966;28;20483;-76
2023/06/04 08:19:52;;;;;;;12.73;12.03;;;28.60;49.70;;;;;;4971000;28;20463;-75
2023/06/04 08:22:19;;;;;;;12.67;11.93;;;28.80;49.50;;;;;;4970739;28;20506;-71
2023/06/04 08:24:46;;;;;;;12.30;11.80;;;29.10;48.60;;;;;;4970879;28;20458;-76
2023/06/04 08:27:13;;;;;;;13.20;12.60;;;29.20;49.10;;;;;;4969486;28;20440;-75
2023/06/04 08:29:40;;;;;;;13.03;12.40;;;29.30;48.10;;;;;;4970575;28;20469;-75
2023/06/04 08:32:07;;;;;;;13.20;12.30;;;28.80;48.40;;;;;;4970504;28;20491;-75
2023/06/04 08:34:34;;;;;;;13.47;12.77;;;28.70;48.10;;;;;;4970266;28;20455;-75
2023/06/04 08:37:02;;;;;;;13.47;12.77;;;29.00;48.10;;;;;;4970441;28;20877;-75
2023/06/04 08:39:28;;;;;;;13.53;12.93;;;29.50;47.40;;;;;;4970334;28;20475;-75
2023/06/04 08:42:00;;;;;;;14.20;13.30;;;29.50;47.00;;;;;;4970531;28;20455;-75
2023/06/04 08:44:27;;;;;;;13.30;12.70;;;29.70;46.60;;;;;;4970604;28;20459;-74
2023/06/04 08:46:59;;;;;;;13.27;12.67;;;29.50;47.00;;;;;;4970385;28;20460;-74
2023/06/04 08:49:26;;;;;;;14.70;13.40;;;29.50;47.30;;;;;;4970609;28;20451;-76
2023/06/04 08:51:53;;;;;;;13.40;12.80;;;29.70;47.50;;;;;;4970283;28;20487;-75
2023/06/04 08:54:21;;;;;;;13.93;13.17;;;30.10;46.50;;;;;;4970290;28;20467;-74
2023/06/04 08:56:51;;;;;;;14.07;12.93;;;30.30;46.10;;;;;;4970305;28;20463;-74
2023/06/04 08:59:18;;;;;;;13.40;12.67;;;30.10;46.60;;;;;;4970256;28;20460;-74
2023/06/04 09:01:45;;;;;;;11.80;11.30;;;30.00;46.50;;;;;;4970579;28;20451;-75
2023/06/04 09:04:12;;;;;;;14.17;13.40;;;30.20;46.30;;;;;;4970408;28;20817;-75
2023/06/04 09:06:41;;;;;;;13.97;13.33;;;30.20;46.30;;;;;;4970173;28;20916;-75
2023/06/04 09:09:10;;;;;;;13.90;13.20;;;30.90;45.20;;;;;;4970138;28;20459;-75
2023/06/04 09:11:42;;;;;;;13.87;13.27;;;30.90;45.30;;;;;;4970079;28;20490;-75
2023/06/04 09:14:10;;;;;;;13.70;13.00;;;31.70;45.00;;;;;;4970337;28;20455;-74
2023/06/04 09:16:44;;;;;;;14.00;13.30;;;32.00;44.30;;;;;;4970544;28;20452;-76
2023/06/04 09:19:10;;;;;;;13.47;12.77;;;31.40;42.60;;;;;;4970216;28;20503;-75
2023/06/04 09:21:47;;;;;;;13.00;12.50;;;30.80;43.60;;;;;;4970043;28;20455;-75
2023/06/04 09:24:14;;;;;;;13.20;12.60;;;30.00;43.20;;;;;;4970330;28;20926;-75
2023/06/04 09:26:42;;;;;;;13.17;12.57;;;29.60;44.70;;;;;;4973373;28;20495;-74
2023/06/04 09:29:09;;;;;;;14.20;13.47;;;29.80;44.80;;;;;;4973526;28;20451;-75
2023/06/04 09:31:37;;;;;;;13.03;12.43;;;30.10;44.70;;;;;;4973423;28;20849;-75
2023/06/04 09:34:04;;;;;;;13.03;12.30;;;30.60;44.80;;;;;;4973381;28;20464;-75
2023/06/04 09:36:31;;;;;;;13.43;12.83;;;30.30;43.20;;;;;;4973468;28;20456;-75
2023/06/04 09:38:58;;;;;;;13.43;12.90;;;30.60;43.00;;;;;;4973537;28;20829;-75
2023/06/04 09:41:27;;;;;;;13.23;12.60;;;30.50;42.70;;;;;;4973181;28;20483;-74
2023/06/04 09:44:03;;;;;;;13.13;12.50;;;30.30;43.90;;;;;;4973318;28;20455;-74
2023/06/04 09:46:30;;;;;;;13.10;12.50;;;30.10;43.70;;;;;;4973467;28;20478;-75
2023/06/04 09:49:01;;;;;;;12.57;12.03;;;29.90;43.70;;;;;;4973379;28;20829;-75
2023/06/04 09:51:29;;;;;;;13.30;12.60;;;29.70;44.10;;;;;;4973514;28;20511;-74
2023/06/04 09:53:57;;;;;;;13.10;12.50;;;29.50;44.90;;;;;;4973274;28;20953;-74
2023/06/04 09:56:23;;;;;;;12.50;12.00;;;30.10;43.10;;;;;;4972912;28;20989;-75
2023/06/04 09:58:54;;;;;;;13.50;12.70;;;30.70;42.40;;;;;;4973043;28;20452;-74
2023/06/04 10:01:24;;;;;;;14.10;13.50;;;31.20;41.80;;;;;;4972983;28;20452;-74
2023/06/04 10:03:52;;;;;;;14.60;13.90;;;31.20;41.80;;;;;;4972891;28;21127;-75
2023/06/04 10:06:20;;;;;;;14.43;13.83;;;30.40;42.60;;;;;;4972802;28;20455;-75
2023/06/04 10:08:49;;;;;;;14.77;13.97;;;29.90;42.30;;;;;;4972911;28;20470;-75
2023/06/04 10:11:18;;;;;;;14.13;13.43;;;30.30;42.90;;;;;;4973151;28;20466;-75
2023/06/04 10:13:49;;;;;;;14.60;13.83;;;30.90;41.80;;;;;;4973173;28;20452;-74
2023/06/04 10:16:16;;;;;;;13.97;13.27;;;31.60;40.60;;;;;;4973013;28;20801;-74
2023/06/04 10:18:45;;;;;;;14.23;13.53;;;31.20;41.60;;;;;;4972874;28;20447;-75
2023/06/04 10:21:15;;;;;;;14.77;14.07;;;31.10;40.50;;;;;;4973003;28;20452;-75
2023/06/04 10:23:44;;;;;;;14.30;13.60;;;31.20;41.30;;;;;;4972667;28;20820;-75
2023/06/04 10:26:15;;;;;;;14.60;13.83;;;31.40;41.90;;;;;;4972723;28;20513;-75
2023/06/04 10:28:42;;;;;;;14.23;13.57;;;32.00;40.70;;;;;;4972685;28;20452;-75
2023/06/04 10:31:10;;;;;;;16.10;15.30;;;32.80;39.80;;;;;;4972478;28;20452;-76
2023/06/04 10:33:37;;;;;;;15.23;14.53;;;33.90;39.20;;;;;;4972388;28;20692;-75
2023/06/04 10:36:19;;;;;;;15.37;14.77;;;33.30;38.30;;;;;;4971666;28;20459;-75
2023/06/04 10:38:47;;;;;;;15.33;14.63;;;33.30;38.70;;;;;;4972537;28;20480;-74
2023/06/04 10:41:18;;;;;;;14.03;13.43;;;33.20;38.10;;;;;;4972320;28;20499;-75
2023/06/04 10:43:49;;;;;;;14.77;14.03;;;33.20;38.50;;;;;;4972604;28;20460;-74
2023/06/04 10:46:16;;;;;;;15.73;15.03;;;32.80;39.20;;;;;;4972531;28;20456;-74
2023/06/04 10:48:48;;;;;;;15.43;14.53;;;33.10;38.40;;;;;;4972348;28;20456;-74
2023/06/04 10:51:15;;;;;;;16.33;15.53;;;34.20;37.80;;;;;;4972345;28;20495;-74
2023/06/04 10:53:43;;;;;;;15.70;14.60;;;33.70;38.20;;;;;;4971954;28;21036;-74
2023/06/04 10:56:10;;;;;;;15.40;14.70;;;33.90;37.90;;;;;;4971908;28;20463;-72
2023/06/04 10:58:37;;;;;;;15.60;14.60;;;33.30;38.00;;;;;;4971861;28;20874;-74
2023/06/04 11:01:03;;;;;;;14.33;13.73;;;33.40;38.30;;;;;;4971917;28;20443;-74
2023/06/04 11:03:37;;;;;;;13.73;13.23;;;32.80;38.30;;;;;;4971987;28;20451;-74
2023/06/04 11:06:15;;;;;;;14.93;14.13;;;33.40;38.20;;;;;;4971593;28;20979;-75
2023/06/04 11:08:43;;;;;;;15.10;14.40;;;34.00;37.90;;;;;;4971505;28;20443;-74
2023/06/04 11:11:13;;;;;;;14.97;14.40;;;33.90;37.20;;;;;;4971501;28;20452;-74
2023/06/04 11:13:39;;;;;;;14.90;14.37;;;33.40;38.10;;;;;;4971071;28;20534;-74
2023/06/04 11:16:17;;;;;;;15.90;15.10;;;34.40;37.30;;;;;;4971456;28;20456;-75
2023/06/04 11:18:43;;;;;;;14.57;14.00;;;34.40;36.50;;;;;;4971919;28;20522;-74
2023/06/04 11:21:11;;;;;;;14.63;14.03;;;34.30;36.70;;;;;;4971343;28;20455;-74
2023/06/04 11:23:38;;;;;;;15.20;14.50;;;33.80;36.50;;;;;;4971327;28;20559;-74
2023/06/04 11:26:07;;;;;;;16.30;15.60;;;34.30;36.10;;;;;;4971364;28;20466;-74
2023/06/04 11:28:33;;;;;;;14.90;14.30;;;33.60;36.60;;;;;;4971087;28;20949;-73
2023/06/04 11:31:02;;;;;;;15.47;14.77;;;33.60;37.10;;;;;;4971606;28;20455;-74
2023/06/04 11:33:29;;;;;;;15.60;14.70;;;33.30;36.70;;;;;;4971526;28;20495;-73
2023/06/04 11:35:56;;;;;;;14.80;13.90;;;32.60;37.00;;;;;;4971349;28;20880;-73
2023/06/04 11:38:23;;;;;;;15.13;14.43;;;33.60;36.50;;;;;;4970985;28;20460;-74
2023/06/04 11:40:57;;;;;;;15.20;14.50;;;34.50;35.70;;;;;;4970899;28;20488;-73
2023/06/04 11:43:25;;;;;;;15.73;14.90;;;35.50;35.10;;;;;;4971141;28;20444;-73
2023/06/04 11:45:51;;;;;;;15.17;14.57;;;35.00;34.10;;;;;;4971040;28;20651;-74
2023/06/04 11:48:18;;;;;;;15.50;14.70;;;35.90;33.70;;;;;;4970568;28;20510;-73
2023/06/04 11:50:45;;;;;;;15.73;15.00;;;34.30;34.50;;;;;;4970575;28;20451;-73
2023/06/04 11:53:12;;;;;;;15.70;15.00;;;34.10;34.30;;;;;;4970758;28;20484;-74
2023/06/04 11:55:39;;;;;;;15.47;14.77;;;33.80;34.40;;;;;;4970887;28;20514;-74
2023/06/04 11:58:06;;;;;;;14.60;13.90;;;33.10;35.20;;;;;;4970867;28;20455;-74
2023/06/04 12:00:35;;;;;;;14.40;13.77;;;32.50;36.00;;;;;;4970808;28;20459;-75
2023/06/04 12:03:01;;;;;;;15.10;14.50;;;32.70;36.50;;;;;;4970933;28;20448;-73
2023/06/04 12:05:31;;;;;;;15.57;14.77;;;33.50;35.90;;;;;;4970939;28;20451;-74
2023/06/04 12:08:05;;;;;;;14.93;14.23;;;34.30;34.80;;;;;;4970390;28;20475;-74
2023/06/04 12:10:38;;;;;;;14.20;13.60;;;34.10;34.90;;;;;;4970642;28;20461;-73
2023/06/04 12:13:05;;;;;;;15.70;14.90;;;33.50;34.90;;;;;;4970433;28;21112;-74
2023/06/04 12:15:31;;;;;;;15.77;14.97;;;33.40;35.20;;;;;;4970783;28;20456;-74
2023/06/04 12:18:00;;;;;;;14.77;14.10;;;33.10;35.70;;;;;;4970936;28;20842;-74
2023/06/04 12:20:36;;;;;;;15.20;14.40;;;32.70;35.90;;;;;;4970417;28;20492;-74
2023/06/04 12:23:03;;;;;;;15.57;14.87;;;33.30;35.90;;;;;;4970720;28;20458;-75
2023/06/04 12:25:31;;;;;;;16.27;15.47;;;33.40;34.70;;;;;;4970635;28;20456;-74
2023/06/04 12:27:57;;;;;;;15.17;14.37;;;32.80;35.30;;;;;;4970693;28;20459;-74
2023/06/04 12:30:35;;;;;;;15.03;14.33;;;32.50;35.50;;;;;;4970112;28;21095;-72
2023/06/04 12:33:03;;;;;;;15.50;14.80;;;31.50;36.20;;;;;;4965029;28;20499;-74
2023/06/04 12:35:29;;;;;;;15.00;14.30;;;31.70;36.50;;;;;;4970556;28;20518;-75
2023/06/04 12:37:56;;;;;;;15.23;14.47;;;32.40;35.90;;;;;;4970362;28;20504;-74
2023/06/04 12:40:23;;;;;;;15.10;14.40;;;33.20;34.70;;;;;;4969851;28;20494;-74
2023/06/04 12:42:51;;;;;;;14.93;14.20;;;32.90;34.90;;;;;;4970176;28;20489;-74
2023/06/04 12:45:18;;;;;;;15.03;14.37;;;33.20;35.00;;;;;;4970084;28;20458;-74
2023/06/04 12:47:46;;;;;;;14.90;14.30;;;32.90;34.60;;;;;;4970236;28;20922;-74
2023/06/04 12:50:14;;;;;;;16.50;15.70;;;32.00;35.70;;;;;;4970335;28;20478;-74
2023/06/04 12:52:41;;;;;;;15.30;14.30;;;32.00;36.30;;;;;;4969986;28;20501;-75
2023/06/04 12:55:08;;;;;;;16.23;15.53;;;32.50;35.90;;;;;;4969882;28;20558;-75
2023/06/04 12:57:35;;;;;;;15.47;14.87;;;32.60;35.60;;;;;;4969938;28;20961;-75
2023/06/04 13:00:03;;;;;;;15.50;14.77;;;32.20;35.20;;;;;;4971332;28;20456;-74
2023/06/04 13:02:30;;;;;;;16.50;15.70;;;32.20;35.80;;;;;;4973911;28;20451;-75
2023/06/04 13:04:57;;;;;;;16.50;15.60;;;32.40;35.60;;;;;;4973885;28;20559;-75
2023/06/04 13:07:25;;;;;;;15.73;15.03;;;32.80;35.90;;;;;;4973349;28;20463;-75
2023/06/04 13:09:51;;;;;;;15.57;14.87;;;33.40;35.20;;;;;;4973405;28;20977;-74
2023/06/04 13:12:18;;;;;;;16.57;15.50;;;32.80;34.40;;;;;;4973538;28;21012;-71
2023/06/04 13:14:45;;;;;;;14.93;14.33;;;31.60;35.40;;;;;;4973495;28;20475;-71
2023/06/04 13:17:11;;;;;;;15.20;14.33;;;31.20;36.70;;;;;;4973603;28;20474;-74
2023/06/04 13:19:38;;;;;;;15.87;15.07;;;31.70;35.60;;;;;;4973320;28;20447;-74
2023/06/04 13:22:05;;;;;;;16.00;15.10;;;31.60;35.80;;;;;;4973360;28;20456;-74
2023/06/04 13:24:33;;;;;;;14.83;14.13;;;31.90;34.90;;;;;;4973328;28;20459;-74
2023/06/04 13:26:59;;;;;;;15.23;14.60;;;31.60;35.40;;;;;;4973306;28;20451;-74
2023/06/04 13:29:26;;;;;;;13.97;13.37;;;31.10;36.20;;;;;;4973153;28;20459;-74
2023/06/04 13:31:54;;;;;;;13.40;12.70;;;31.10;35.50;;;;;;4973171;28;20447;-74
2023/06/04 13:34:21;;;;;;;15.13;14.43;;;31.60;35.50;;;;;;4973186;28;21183;-74
2023/06/04 13:36:47;;;;;;;15.40;14.70;;;32.80;34.70;;;;;;4973265;28;20451;-73
2023/06/04 13:39:14;;;;;;;14.93;14.13;;;33.60;33.60;;;;;;4973052;28;20478;-72
2023/06/04 13:41:42;;;;;;;14.97;14.27;;;33.40;33.10;;;;;;4972985;28;20505;-71
2023/06/04 13:44:09;;;;;;;14.80;14.20;;;33.00;33.60;;;;;;4972803;28;20447;-72
2023/06/04 13:46:35;;;;;;;15.07;14.37;;;32.90;33.30;;;;;;4972840;28;20788;-72
2023/06/04 13:49:03;;;;;;;15.17;14.57;;;33.10;33.40;;;;;;4972707;28;20454;-72
2023/06/04 13:51:30;;;;;;;15.23;14.53;;;32.60;33.40;;;;;;4972909;28;20512;-71
2023/06/04 13:53:56;;;;;;;14.97;14.17;;;31.60;34.20;;;;;;4972798;28;20491;-73
2023/06/04 13:56:23;;;;;;;14.80;14.13;;;31.70;34.30;;;;;;4972491;28;20455;-71
2023/06/04 13:58:51;;;;;;;15.60;14.80;;;31.20;35.40;;;;;;4972696;28;20575;-71
2023/06/04 14:01:18;;;;;;;14.33;13.40;;;31.50;34.90;;;;;;4972726;28;20452;-72
2023/06/04 14:03:45;;;;;;;14.97;14.37;;;31.80;34.80;;;;;;4972684;28;20934;-72
2023/06/04 14:06:11;;;;;;;14.83;14.13;;;32.10;34.20;;;;;;4972643;28;20479;-73
2023/06/04 14:08:38;;;;;;;13.97;13.37;;;32.20;33.80;;;;;;4972462;28;20492;-72
2023/06/04 14:11:05;;;;;;;14.90;14.30;;;31.90;33.20;;;;;;4972374;28;20475;-72
2023/06/04 14:13:32;;;;;;;13.20;12.57;;;31.70;33.60;;;;;;4972556;28;20494;-72
2023/06/04 14:16:00;;;;;;;15.03;14.33;;;31.60;33.80;;;;;;4972568;28;20456;-74
2023/06/04 14:18:26;;;;;;;14.73;13.93;;;30.90;34.10;;;;;;4972474;28;20466;-72
2023/06/04 14:20:53;;;;;;;14.80;14.00;;;30.20;35.10;;;;;;4971955;28;20456;-72
2023/06/04 14:23:20;;;;;;;14.97;14.20;;;30.80;35.80;;;;;;4972123;28;20470;-72
2023/06/04 14:25:47;;;;;;;15.33;14.40;;;31.20;34.60;;;;;;4970595;28;20538;-72
2023/06/04 14:28:13;;;;;;;15.37;14.57;;;31.40;34.60;;;;;;4972521;28;20459;-73
2023/06/04 14:30:40;;;;;;;14.27;13.67;;;31.00;34.20;;;;;;4972483;28;20517;-73
2023/06/04 14:33:08;;;;;;;15.10;14.30;;;31.40;33.60;;;;;;4970241;28;20574;-72
2023/06/04 14:35:35;;;;;;;14.50;13.80;;;31.40;34.30;;;;;;4971755;28;20455;-72
2023/06/04 14:38:01;;;;;;;13.97;13.43;;;31.10;34.00;;;;;;4972251;28;20464;-72
2023/06/04 14:40:28;;;;;;;14.47;13.77;;;31.20;34.30;;;;;;4972266;28;20503;-72
2023/06/04 14:42:55;;;;;;;13.60;12.90;;;31.40;33.60;;;;;;4972123;28;20459;-72
2023/06/04 14:45:22;;;;;;;13.20;12.70;;;31.50;33.80;;;;;;4972223;28;20470;-71
2023/06/04 14:47:50;;;;;;;14.20;13.50;;;31.20;34.10;;;;;;4972019;28;20816;-71
2023/06/04 14:50:19;;;;;;;14.10;13.40;;;30.60;33.70;;;;;;4971933;28;20835;-72
2023/06/04 14:52:46;;;;;;;13.57;12.87;;;30.30;34.40;;;;;;4972054;28;20455;-72
2023/06/04 14:55:13;;;;;;;13.13;12.53;;;30.30;34.40;;;;;;4972160;28;20490;-71
2023/06/04 14:57:40;;;;;;;13.80;13.10;;;30.00;34.50;;;;;;4970458;28;20463;-71
2023/06/04 15:00:07;;;;;;;13.30;12.70;;;29.30;35.10;;;;;;4971754;28;20463;-71
2023/06/04 15:02:34;;;;;;;13.03;12.33;;;28.40;35.70;;;;;;4972000;28;20448;-71
2023/06/04 15:05:01;;;;;;;13.50;12.60;;;27.80;36.70;;;;;;4972307;28;20459;-74
2023/06/04 15:07:29;;;;;;;13.47;12.77;;;27.50;37.40;;;;;;4971962;28;20459;-72
2023/06/04 15:09:56;;;;;;;13.13;12.37;;;27.50;37.30;;;;;;4971730;28;20466;-72
2023/06/04 15:12:22;;;;;;;12.50;11.97;;;27.50;37.80;;;;;;4969870;28;20526;-72
2023/06/04 15:14:49;;;;;;;12.70;12.00;;;27.50;38.50;;;;;;4969171;28;20514;-72
2023/06/04 15:17:16;;;;;;;12.63;11.90;;;27.50;38.30;;;;;;4970229;28;20482;-72
2023/06/04 15:19:42;;;;;;;12.77;12.10;;;27.40;38.30;;;;;;4971390;28;20475;-72
2023/06/04 15:22:09;;;;;;;12.50;11.90;;;27.40;38.00;;;;;;4971026;28;20459;-72
2023/06/04 15:24:37;;;;;;;13.20;12.60;;;27.50;38.10;;;;;;4971470;28;20460;-73
2023/06/04 15:27:05;;;;;;;13.23;12.60;;;27.30;37.70;;;;;;4966122;28;20502;-73
2023/06/04 15:29:32;;;;;;;13.00;12.30;;;27.30;38.30;;;;;;4971551;28;20793;-71
2023/06/04 15:31:58;;;;;;;12.50;11.90;;;27.20;38.00;;;;;;4971685;28;20526;-72
2023/06/04 15:34:25;;;;;;;13.33;12.63;;;26.90;38.20;;;;;;4970953;28;21017;-72
2023/06/04 15:36:52;;;;;;;12.67;11.97;;;26.80;38.60;;;;;;4969805;28;20460;-72
2023/06/04 15:39:18;;;;;;;11.53;10.97;;;26.70;39.00;;;;;;4970969;28;20464;-72
2023/06/04 15:41:46;;;;;;;12.53;11.83;;;26.60;38.70;;;;;;4969675;28;20480;-71
2023/06/04 15:44:13;;;;;;;13.07;12.37;;;26.50;39.00;;;;;;4971318;28;20458;-71
2023/06/04 15:46:40;;;;;;;12.03;11.43;;;26.50;39.00;;;;;;4971158;28;20482;-71
2023/06/04 15:49:07;;;;;;;13.60;12.67;;;26.60;39.10;;;;;;4971006;28;20458;-72
2023/06/04 15:51:35;;;;;;;12.70;12.10;;;26.60;39.10;;;;;;4971059;28;20459;-71
2023/06/04 15:54:02;;;;;;;12.90;12.30;;;26.60;39.20;;;;;;4971082;28;21071;-71
2023/06/04 15:56:29;;;;;;;12.30;11.70;;;26.70;39.00;;;;;;4971697;28;20539;-72
2023/06/04 15:58:57;;;;;;;12.53;11.93;;;26.70;39.10;;;;;;4971104;28;20532;-71
2023/06/04 16:01:24;;;;;;;12.30;11.60;;;26.70;39.10;;;;;;4971039;28;20463;-71
2023/06/04 16:03:52;;;;;;;11.80;11.00;;;26.60;39.10;;;;;;4970958;28;20518;-72
2023/06/04 16:06:19;;;;;;;11.30;10.80;;;26.50;39.20;;;;;;4970753;28;20526;-71
2023/06/04 16:08:46;;;;;;;12.73;12.13;;;26.50;39.50;;;;;;4971067;28;20456;-71
2023/06/04 16:11:12;;;;;;;11.60;11.13;;;26.40;39.60;;;;;;4970851;28;20455;-71